sensor_id;sensor_type;location;lat;lon;timestamp;temperature;humidity
8002;DHT22;4046;48.774;8.732;2023-09-19T00:00:46;24.70;99.90
8002;DHT22;4046;48.774;8.732;2023-09-19T00:03:15;24.70;99.90
8002;DHT22;4046;48.774;8.732;2023-09-19T00:05:41;24.70;99.90
8002;DHT22;4046;48.774;8.732;2023-09-19T00:08:09;24.70;99.90
8002;DHT22;4046;48.774;8.732;2023-09-19T00:10:35;24.80;99.90
8002;DHT22;4046;48.774;8.732;2023-09-19T00:13:02;24.60;99.90
8002;DHT22;4046;48.774;8.732;2023-09-19T00:15:37;24.70;99.90
8002;DHT22;4046;48.774;8.732;2023-09-19T00:18:04;24.70;99.90
8002;DHT22;4046;48.774;8.732;2023-09-19T00:20:37;24.70;99.90
8002;DHT22;4046;48.774;8.732;2023-09-19T00:23:04;24.60;99.90
8002;DHT22;4046;48.774;8.732;2023-09-19T00:25:35;24.60;99.90
8002;DHT22;4046;48.774;8.732;2023-09-19T00:28:01;24.60;99.90
8002;DHT22;4046;48.774;8.732;2023-09-19T00:30:27;24.60;99.90
8002;DHT22;4046;48.774;8.732;2023-09-19T00:32:53;24.60;99.90
8002;DHT22;4046;48.774;8.732;2023-09-19T00:35:20;24.60;99.90
8002;DHT22;4046;48.774;8.732;2023-09-19T00:37:47;24.60;99.90
8002;DHT22;4046;48.774;8.732;2023-09-19T00:40:13;24.60;99.90
8002;DHT22;4046;48.774;8.732;2023-09-19T00:42:41;24.50;99.90
8002;DHT22;4046;48.774;8.732;2023-09-19T00:45:12;24.50;99.90
8002;DHT22;4046;48.774;8.732;2023-09-19T00:47:40;24.50;99.90
8002;DHT22;4046;48.774;8.732;2023-09-19T00:50:08;24.50;99.90
8002;DHT22;4046;48.774;8.732;2023-09-19T00:52:35;24.50;99.90
8002;DHT22;4046;48.774;8.732;2023-09-19T00:55:05;24.50;99.90
8002;DHT22;4046;48.774;8.732;2023-09-19T00:57:33;24.50;99.90
8002;DHT22;4046;48.774;8.732;2023-09-19T01:00:00;24.50;99.90
8002;DHT22;4046;48.774;8.732;2023-09-19T01:02:26;24.50;99.90
8002;DHT22;4046;48.774;8.732;2023-09-19T01:04:54;24.50;99.90
8002;DHT22;4046;48.774;8.732;2023-09-19T01:07:20;24.50;99.90
8002;DHT22;4046;48.774;8.732;2023-09-19T01:09:48;24.50;99.90
8002;DHT22;4046;48.774;8.732;2023-09-19T01:12:20;24.50;99.90
8002;DHT22;4046;48.774;8.732;2023-09-19T01:15:19;24.40;99.90
8002;DHT22;4046;48.774;8.732;2023-09-19T01:17:53;24.40;99.90
8002;DHT22;4046;48.774;8.732;2023-09-19T01:20:31;24.40;99.90
8002;DHT22;4046;48.774;8.732;2023-09-19T01:23:21;24.40;99.90
8002;DHT22;4046;48.774;8.732;2023-09-19T01:26:10;24.40;99.90
8002;DHT22;4046;48.774;8.732;2023-09-19T01:31:09;24.40;99.90
8002;DHT22;4046;48.774;8.732;2023-09-19T01:33:54;24.60;99.90
8002;DHT22;4046;48.774;8.732;2023-09-19T01:36:23;24.40;99.90
8002;DHT22;4046;48.774;8.732;2023-09-19T01:38:50;24.30;99.90
8002;DHT22;4046;48.774;8.732;2023-09-19T01:41:33;24.30;99.90
8002;DHT22;4046;48.774;8.732;2023-09-19T01:44:06;24.30;99.90
8002;DHT22;4046;48.774;8.732;2023-09-19T01:46:36;24.30;99.90
8002;DHT22;4046;48.774;8.732;2023-09-19T01:49:33;24.30;99.90
8002;DHT22;4046;48.774;8.732;2023-09-19T01:52:12;24.30;99.90
8002;DHT22;4046;48.774;8.732;2023-09-19T01:54:53;24.30;99.90
8002;DHT22;4046;48.774;8.732;2023-09-19T01:57:29;24.30;99.90
8002;DHT22;4046;48.774;8.732;2023-09-19T02:00:03;24.30;99.90
8002;DHT22;4046;48.774;8.732;2023-09-19T02:02:36;24.30;99.90
8002;DHT22;4046;48.774;8.732;2023-09-19T02:05:04;24.30;99.90
8002;DHT22;4046;48.774;8.732;2023-09-19T02:07:30;24.30;99.90
8002;DHT22;4046;48.774;8.732;2023-09-19T02:09:58;24.30;99.90
8002;DHT22;4046;48.774;8.732;2023-09-19T02:12:27;24.20;99.90
8002;DHT22;4046;48.774;8.732;2023-09-19T02:14:53;24.20;99.90
8002;DHT22;4046;48.774;8.732;2023-09-19T02:17:18;24.20;99.90
8002;DHT22;4046;48.774;8.732;2023-09-19T02:19:45;24.20;99.90
8002;DHT22;4046;48.774;8.732;2023-09-19T02:22:10;24.20;99.90
8002;DHT22;4046;48.774;8.732;2023-09-19T02:24:37;24.30;99.90
8002;DHT22;4046;48.774;8.732;2023-09-19T02:27:04;24.20;99.90
8002;DHT22;4046;48.774;8.732;2023-09-19T02:29:31;24.40;99.90
8002;DHT22;4046;48.774;8.732;2023-09-19T02:31:56;24.20;99.90
8002;DHT22;4046;48.774;8.732;2023-09-19T02:34:22;24.20;99.90
8002;DHT22;4046;48.774;8.732;2023-09-19T02:36:48;24.20;99.90
8002;DHT22;4046;48.774;8.732;2023-09-19T02:39:14;24.30;99.90
8002;DHT22;4046;48.774;8.732;2023-09-19T02:41:40;24.20;99.90
8002;DHT22;4046;48.774;8.732;2023-09-19T02:44:07;24.20;99.90
8002;DHT22;4046;48.774;8.732;2023-09-19T02:46:36;24.20;99.90
8002;DHT22;4046;48.774;8.732;2023-09-19T02:49:02;24.20;99.90
8002;DHT22;4046;48.774;8.732;2023-09-19T02:51:32;24.20;99.90
8002;DHT22;4046;48.774;8.732;2023-09-19T02:53:59;24.20;99.90
8002;DHT22;4046;48.774;8.732;2023-09-19T02:56:25;24.20;99.90
8002;DHT22;4046;48.774;8.732;2023-09-19T02:58:51;24.20;99.90
8002;DHT22;4046;48.774;8.732;2023-09-19T03:01:17;24.20;99.90
8002;DHT22;4046;48.774;8.732;2023-09-19T03:03:44;24.20;99.90
8002;DHT22;4046;48.774;8.732;2023-09-19T03:06:10;24.20;99.90
8002;DHT22;4046;48.774;8.732;2023-09-19T03:08:38;24.20;99.90
8002;DHT22;4046;48.774;8.732;2023-09-19T03:11:11;24.20;99.90
8002;DHT22;4046;48.774;8.732;2023-09-19T03:13:38;24.10;99.90
8002;DHT22;4046;48.774;8.732;2023-09-19T03:16:05;24.20;99.90
8002;DHT22;4046;48.774;8.732;2023-09-19T03:18:33;24.40;99.90
8002;DHT22;4046;48.774;8.732;2023-09-19T03:20:59;24.20;99.90
8002;DHT22;4046;48.774;8.732;2023-09-19T03:23:28;24.10;99.90
8002;DHT22;4046;48.774;8.732;2023-09-19T03:25:54;24.10;99.90
8002;DHT22;4046;48.774;8.732;2023-09-19T03:28:22;24.10;99.90
8002;DHT22;4046;48.774;8.732;2023-09-19T03:31:00;24.10;99.90
8002;DHT22;4046;48.774;8.732;2023-09-19T03:33:26;24.10;99.90
8002;DHT22;4046;48.774;8.732;2023-09-19T03:35:53;24.10;99.90
8002;DHT22;4046;48.774;8.732;2023-09-19T03:38:19;24.10;99.90
8002;DHT22;4046;48.774;8.732;2023-09-19T03:40:45;24.10;99.90
8002;DHT22;4046;48.774;8.732;2023-09-19T03:43:11;24.10;99.90
8002;DHT22;4046;48.774;8.732;2023-09-19T03:45:36;24.10;99.90
8002;DHT22;4046;48.774;8.732;2023-09-19T03:48:13;24.10;99.90
8002;DHT22;4046;48.774;8.732;2023-09-19T03:50:39;24.00;99.90
8002;DHT22;4046;48.774;8.732;2023-09-19T03:53:05;24.10;99.90
8002;DHT22;4046;48.774;8.732;2023-09-19T03:55:33;24.10;99.90
8002;DHT22;4046;48.774;8.732;2023-09-19T03:58:04;24.10;99.90
8002;DHT22;4046;48.774;8.732;2023-09-19T04:00:30;24.10;99.90
8002;DHT22;4046;48.774;8.732;2023-09-19T04:02:56;24.00;99.90
8002;DHT22;4046;48.774;8.732;2023-09-19T04:05:23;24.10;99.90
8002;DHT22;4046;48.774;8.732;2023-09-19T04:07:49;24.00;99.90
8002;DHT22;4046;48.774;8.732;2023-09-19T04:10:15;24.00;99.90
8002;DHT22;4046;48.774;8.732;2023-09-19T04:12:50;24.00;99.90
8002;DHT22;4046;48.774;8.732;2023-09-19T04:15:17;24.00;99.90
8002;DHT22;4046;48.774;8.732;2023-09-19T04:17:43;24.00;99.90
8002;DHT22;4046;48.774;8.732;2023-09-19T04:20:09;24.00;99.90
8002;DHT22;4046;48.774;8.732;2023-09-19T04:22:38;24.00;99.90
8002;DHT22;4046;48.774;8.732;2023-09-19T04:25:05;24.00;99.90
8002;DHT22;4046;48.774;8.732;2023-09-19T04:27:32;24.00;99.90
8002;DHT22;4046;48.774;8.732;2023-09-19T04:29:58;24.00;99.90
8002;DHT22;4046;48.774;8.732;2023-09-19T04:32:28;24.00;99.90
8002;DHT22;4046;48.774;8.732;2023-09-19T04:34:55;24.00;99.90
8002;DHT22;4046;48.774;8.732;2023-09-19T04:37:25;24.00;99.90
8002;DHT22;4046;48.774;8.732;2023-09-19T04:39:51;24.00;99.90
8002;DHT22;4046;48.774;8.732;2023-09-19T04:42:17;24.00;99.90
8002;DHT22;4046;48.774;8.732;2023-09-19T04:44:43;24.10;99.90
8002;DHT22;4046;48.774;8.732;2023-09-19T04:47:09;24.00;99.90
8002;DHT22;4046;48.774;8.732;2023-09-19T04:49:34;24.00;99.90
8002;DHT22;4046;48.774;8.732;2023-09-19T04:52:00;24.00;99.90
8002;DHT22;4046;48.774;8.732;2023-09-19T04:54:26;24.00;99.90
8002;DHT22;4046;48.774;8.732;2023-09-19T04:56:52;24.00;99.90
8002;DHT22;4046;48.774;8.732;2023-09-19T04:59:18;24.00;99.90
8002;DHT22;4046;48.774;8.732;2023-09-19T05:01:44;24.00;99.90
8002;DHT22;4046;48.774;8.732;2023-09-19T05:04:09;24.00;99.90
8002;DHT22;4046;48.774;8.732;2023-09-19T05:06:35;23.90;99.90
8002;DHT22;4046;48.774;8.732;2023-09-19T05:09:01;23.90;99.90
8002;DHT22;4046;48.774;8.732;2023-09-19T05:11:30;24.00;99.90
8002;DHT22;4046;48.774;8.732;2023-09-19T05:13:56;23.90;99.90
8002;DHT22;4046;48.774;8.732;2023-09-19T05:16:21;23.90;99.90
8002;DHT22;4046;48.774;8.732;2023-09-19T05:18:47;23.90;99.90
8002;DHT22;4046;48.774;8.732;2023-09-19T05:21:13;23.90;99.90
8002;DHT22;4046;48.774;8.732;2023-09-19T05:23:39;23.90;99.90
8002;DHT22;4046;48.774;8.732;2023-09-19T05:26:04;23.90;99.90
8002;DHT22;4046;48.774;8.732;2023-09-19T05:28:30;23.90;99.90
8002;DHT22;4046;48.774;8.732;2023-09-19T05:31:00;23.90;99.90
8002;DHT22;4046;48.774;8.732;2023-09-19T05:33:27;24.00;99.90
8002;DHT22;4046;48.774;8.732;2023-09-19T05:35:53;23.90;99.90
8002;DHT22;4046;48.774;8.732;2023-09-19T05:38:19;23.90;99.90
8002;DHT22;4046;48.774;8.732;2023-09-19T05:40:45;23.90;99.90
8002;DHT22;4046;48.774;8.732;2023-09-19T05:43:11;24.00;99.90
8002;DHT22;4046;48.774;8.732;2023-09-19T05:45:40;23.90;99.90
8002;DHT22;4046;48.774;8.732;2023-09-19T05:48:11;23.80;99.90
8002;DHT22;4046;48.774;8.732;2023-09-19T05:50:37;23.80;99.90
8002;DHT22;4046;48.774;8.732;2023-09-19T05:53:04;23.90;99.90
8002;DHT22;4046;48.774;8.732;2023-09-19T05:55:31;23.80;99.90
8002;DHT22;4046;48.774;8.732;2023-09-19T05:57:57;23.80;99.90
8002;DHT22;4046;48.774;8.732;2023-09-19T06:00:23;23.80;99.90
8002;DHT22;4046;48.774;8.732;2023-09-19T06:02:51;23.80;99.90
8002;DHT22;4046;48.774;8.732;2023-09-19T06:05:17;23.90;99.90
8002;DHT22;4046;48.774;8.732;2023-09-19T06:07:43;23.90;99.90
8002;DHT22;4046;48.774;8.732;2023-09-19T06:10:09;23.80;99.90
8002;DHT22;4046;48.774;8.732;2023-09-19T06:12:39;23.90;99.90
8002;DHT22;4046;48.774;8.732;2023-09-19T06:15:05;23.90;99.90
8002;DHT22;4046;48.774;8.732;2023-09-19T06:17:31;23.90;99.90
8002;DHT22;4046;48.774;8.732;2023-09-19T06:19:57;23.90;99.90
8002;DHT22;4046;48.774;8.732;2023-09-19T06:22:23;23.90;99.90
8002;DHT22;4046;48.774;8.732;2023-09-19T06:24:50;23.80;99.90
8002;DHT22;4046;48.774;8.732;2023-09-19T06:27:15;23.80;99.90
8002;DHT22;4046;48.774;8.732;2023-09-19T06:29:41;23.90;99.90
8002;DHT22;4046;48.774;8.732;2023-09-19T06:32:08;23.90;99.90
8002;DHT22;4046;48.774;8.732;2023-09-19T06:34:34;23.90;99.90
8002;DHT22;4046;48.774;8.732;2023-09-19T06:37:00;24.00;99.90
8002;DHT22;4046;48.774;8.732;2023-09-19T06:39:26;23.80;99.90
8002;DHT22;4046;48.774;8.732;2023-09-19T06:41:52;23.80;99.90
8002;DHT22;4046;48.774;8.732;2023-09-19T06:44:21;23.90;99.90
8002;DHT22;4046;48.774;8.732;2023-09-19T06:46:50;23.80;99.90
8002;DHT22;4046;48.774;8.732;2023-09-19T06:49:17;23.80;99.90
8002;DHT22;4046;48.774;8.732;2023-09-19T06:51:43;23.90;99.90
8002;DHT22;4046;48.774;8.732;2023-09-19T06:54:10;23.80;99.90
8002;DHT22;4046;48.774;8.732;2023-09-19T06:56:35;24.20;99.90
8002;DHT22;4046;48.774;8.732;2023-09-19T06:59:01;23.80;99.90
8002;DHT22;4046;48.774;8.732;2023-09-19T07:01:29;23.90;99.90
8002;DHT22;4046;48.774;8.732;2023-09-19T07:03:55;23.80;99.90
8002;DHT22;4046;48.774;8.732;2023-09-19T07:06:20;23.80;99.90
8002;DHT22;4046;48.774;8.732;2023-09-19T07:08:46;23.90;99.90
8002;DHT22;4046;48.774;8.732;2023-09-19T07:11:12;23.90;99.90
8002;DHT22;4046;48.774;8.732;2023-09-19T07:13:38;23.90;99.90
8002;DHT22;4046;48.774;8.732;2023-09-19T07:16:04;23.90;99.90
8002;DHT22;4046;48.774;8.732;2023-09-19T07:18:30;23.90;99.90
8002;DHT22;4046;48.774;8.732;2023-09-19T07:20:58;23.90;99.90
8002;DHT22;4046;48.774;8.732;2023-09-19T07:23:30;23.90;99.90
8002;DHT22;4046;48.774;8.732;2023-09-19T07:26:01;23.90;99.90
8002;DHT22;4046;48.774;8.732;2023-09-19T07:28:27;23.90;99.90
8002;DHT22;4046;48.774;8.732;2023-09-19T07:30:54;23.90;99.90
8002;DHT22;4046;48.774;8.732;2023-09-19T07:33:20;23.80;99.90
8002;DHT22;4046;48.774;8.732;2023-09-19T07:35:47;23.80;99.90
8002;DHT22;4046;48.774;8.732;2023-09-19T07:38:13;23.80;99.90
8002;DHT22;4046;48.774;8.732;2023-09-19T07:40:39;23.80;99.90
8002;DHT22;4046;48.774;8.732;2023-09-19T07:43:05;23.80;99.90
8002;DHT22;4046;48.774;8.732;2023-09-19T07:45:32;23.80;99.90
8002;DHT22;4046;48.774;8.732;2023-09-19T07:47:58;23.80;99.90
8002;DHT22;4046;48.774;8.732;2023-09-19T07:50:23;23.80;99.90
8002;DHT22;4046;48.774;8.732;2023-09-19T07:52:50;23.80;99.90
8002;DHT22;4046;48.774;8.732;2023-09-19T07:55:19;23.80;99.90
8002;DHT22;4046;48.774;8.732;2023-09-19T07:57:48;23.80;99.90
8002;DHT22;4046;48.774;8.732;2023-09-19T08:00:14;23.80;99.90
8002;DHT22;4046;48.774;8.732;2023-09-19T08:02:41;23.80;99.90
8002;DHT22;4046;48.774;8.732;2023-09-19T08:05:08;23.90;99.90
8002;DHT22;4046;48.774;8.732;2023-09-19T08:07:41;23.80;99.90
8002;DHT22;4046;48.774;8.732;2023-09-19T08:10:08;23.90;99.90
8002;DHT22;4046;48.774;8.732;2023-09-19T08:12:39;23.90;99.90
8002;DHT22;4046;48.774;8.732;2023-09-19T08:15:15;24.00;99.90
8002;DHT22;4046;48.774;8.732;2023-09-19T08:17:42;24.00;99.90
8002;DHT22;4046;48.774;8.732;2023-09-19T08:20:09;24.00;99.90
8002;DHT22;4046;48.774;8.732;2023-09-19T08:22:53;24.10;99.90
8002;DHT22;4046;48.774;8.732;2023-09-19T08:25:22;24.10;99.90
8002;DHT22;4046;48.774;8.732;2023-09-19T08:27:49;24.10;99.90
8002;DHT22;4046;48.774;8.732;2023-09-19T08:30:17;24.20;99.90
8002;DHT22;4046;48.774;8.732;2023-09-19T08:32:50;24.20;99.90
8002;DHT22;4046;48.774;8.732;2023-09-19T08:35:16;24.10;99.90
8002;DHT22;4046;48.774;8.732;2023-09-19T08:37:42;24.20;99.90
8002;DHT22;4046;48.774;8.732;2023-09-19T08:40:11;24.20;99.90
8002;DHT22;4046;48.774;8.732;2023-09-19T08:42:55;24.20;99.90
8002;DHT22;4046;48.774;8.732;2023-09-19T08:45:22;24.20;99.90
8002;DHT22;4046;48.774;8.732;2023-09-19T08:50:48;24.30;99.90
8002;DHT22;4046;48.774;8.732;2023-09-19T08:53:21;24.30;99.90
8002;DHT22;4046;48.774;8.732;2023-09-19T08:55:51;24.30;99.90
8002;DHT22;4046;48.774;8.732;2023-09-19T08:58:19;24.30;99.90
8002;DHT22;4046;48.774;8.732;2023-09-19T09:00:48;24.30;99.90
8002;DHT22;4046;48.774;8.732;2023-09-19T09:03:16;24.30;99.90
8002;DHT22;4046;48.774;8.732;2023-09-19T09:05:45;24.30;99.90
8002;DHT22;4046;48.774;8.732;2023-09-19T09:08:12;24.20;99.90
8002;DHT22;4046;48.774;8.732;2023-09-19T09:10:38;24.20;99.90
8002;DHT22;4046;48.774;8.732;2023-09-19T09:13:06;24.30;99.90
8002;DHT22;4046;48.774;8.732;2023-09-19T09:15:35;24.30;99.90
8002;DHT22;4046;48.774;8.732;2023-09-19T09:18:02;24.30;99.90
8002;DHT22;4046;48.774;8.732;2023-09-19T09:20:30;24.30;99.90
8002;DHT22;4046;48.774;8.732;2023-09-19T09:22:56;24.30;99.90
8002;DHT22;4046;48.774;8.732;2023-09-19T09:25:51;24.40;99.90
8002;DHT22;4046;48.774;8.732;2023-09-19T09:28:23;24.30;99.90
8002;DHT22;4046;48.774;8.732;2023-09-19T09:30:49;24.30;99.90
8002;DHT22;4046;48.774;8.732;2023-09-19T09:33:16;24.30;99.90
8002;DHT22;4046;48.774;8.732;2023-09-19T09:35:59;24.20;99.90
8002;DHT22;4046;48.774;8.732;2023-09-19T09:38:30;24.20;99.90
8002;DHT22;4046;48.774;8.732;2023-09-19T09:41:09;24.30;99.90
8002;DHT22;4046;48.774;8.732;2023-09-19T09:43:39;24.40;99.90
8002;DHT22;4046;48.774;8.732;2023-09-19T09:46:16;24.40;99.90
8002;DHT22;4046;48.774;8.732;2023-09-19T09:51:40;24.30;99.90
8002;DHT22;4046;48.774;8.732;2023-09-19T09:56:58;24.30;99.90
8002;DHT22;4046;48.774;8.732;2023-09-19T09:59:51;24.40;99.90
8002;DHT22;4046;48.774;8.732;2023-09-19T10:02:20;24.40;99.90
8002;DHT22;4046;48.774;8.732;2023-09-19T10:04:57;24.40;99.90
8002;DHT22;4046;48.774;8.732;2023-09-19T10:07:41;24.30;99.90
8002;DHT22;4046;48.774;8.732;2023-09-19T10:10:13;24.30;99.90
8002;DHT22;4046;48.774;8.732;2023-09-19T10:12:48;24.40;99.90
8002;DHT22;4046;48.774;8.732;2023-09-19T10:15:18;24.50;99.90
8002;DHT22;4046;48.774;8.732;2023-09-19T10:17:49;24.50;99.90
8002;DHT22;4046;48.774;8.732;2023-09-19T10:20:20;24.50;99.90
8002;DHT22;4046;48.774;8.732;2023-09-19T10:23:03;24.50;99.90
8002;DHT22;4046;48.774;8.732;2023-09-19T10:25:37;24.50;99.90
8002;DHT22;4046;48.774;8.732;2023-09-19T10:28:06;24.50;99.90
8002;DHT22;4046;48.774;8.732;2023-09-19T10:30:37;24.50;99.90
8002;DHT22;4046;48.774;8.732;2023-09-19T10:33:08;24.40;99.90
8002;DHT22;4046;48.774;8.732;2023-09-19T10:35:38;24.60;99.90
8002;DHT22;4046;48.774;8.732;2023-09-19T10:38:06;24.30;99.90
8002;DHT22;4046;48.774;8.732;2023-09-19T10:40:33;24.30;99.90
8002;DHT22;4046;48.774;8.732;2023-09-19T10:43:05;24.50;99.90
8002;DHT22;4046;48.774;8.732;2023-09-19T10:45:35;24.30;99.90
8002;DHT22;4046;48.774;8.732;2023-09-19T10:48:02;24.30;99.90
8002;DHT22;4046;48.774;8.732;2023-09-19T10:53:54;24.40;99.90
8002;DHT22;4046;48.774;8.732;2023-09-19T10:56:27;24.50;99.90
8002;DHT22;4046;48.774;8.732;2023-09-19T10:59:11;24.40;99.90
8002;DHT22;4046;48.774;8.732;2023-09-19T11:01:52;24.40;99.90
8002;DHT22;4046;48.774;8.732;2023-09-19T11:07:20;24.30;99.90
8002;DHT22;4046;48.774;8.732;2023-09-19T11:09:55;24.30;99.90
8002;DHT22;4046;48.774;8.732;2023-09-19T11:26:44;24.20;99.90
8002;DHT22;4046;48.774;8.732;2023-09-19T11:29:29;24.20;99.90
8002;DHT22;4046;48.774;8.732;2023-09-19T11:31:57;24.20;99.90
8002;DHT22;4046;48.774;8.732;2023-09-19T11:34:37;24.20;99.90
8002;DHT22;4046;48.774;8.732;2023-09-19T11:39:37;24.20;99.90
8002;DHT22;4046;48.774;8.732;2023-09-19T11:42:41;24.20;99.90
8002;DHT22;4046;48.774;8.732;2023-09-19T11:45:07;24.20;99.90
8002;DHT22;4046;48.774;8.732;2023-09-19T11:47:34;24.10;99.90
8002;DHT22;4046;48.774;8.732;2023-09-19T11:50:01;24.10;99.90
8002;DHT22;4046;48.774;8.732;2023-09-19T11:52:28;24.10;99.90
8002;DHT22;4046;48.774;8.732;2023-09-19T11:55:01;24.10;99.90
8002;DHT22;4046;48.774;8.732;2023-09-19T11:57:29;24.10;99.90
8002;DHT22;4046;48.774;8.732;2023-09-19T11:59:56;24.10;99.90
8002;DHT22;4046;48.774;8.732;2023-09-19T12:02:39;24.10;99.90
8002;DHT22;4046;48.774;8.732;2023-09-19T12:05:06;24.10;99.90
8002;DHT22;4046;48.774;8.732;2023-09-19T12:07:45;24.10;99.90
8002;DHT22;4046;48.774;8.732;2023-09-19T12:10:13;24.10;99.90
8002;DHT22;4046;48.774;8.732;2023-09-19T12:12:47;24.10;99.90
8002;DHT22;4046;48.774;8.732;2023-09-19T12:15:24;24.10;99.90
8002;DHT22;4046;48.774;8.732;2023-09-19T12:17:54;24.10;99.90
8002;DHT22;4046;48.774;8.732;2023-09-19T12:20:20;24.10;99.90
8002;DHT22;4046;48.774;8.732;2023-09-19T12:22:47;24.10;99.90
8002;DHT22;4046;48.774;8.732;2023-09-19T12:25:15;24.10;99.90
8002;DHT22;4046;48.774;8.732;2023-09-19T12:27:44;24.10;99.90
8002;DHT22;4046;48.774;8.732;2023-09-19T12:30:13;24.10;99.90
8002;DHT22;4046;48.774;8.732;2023-09-19T12:32:40;24.10;99.90
8002;DHT22;4046;48.774;8.732;2023-09-19T12:35:07;24.10;99.90
8002;DHT22;4046;48.774;8.732;2023-09-19T12:37:51;24.10;99.90
8002;DHT22;4046;48.774;8.732;2023-09-19T12:40:21;24.10;99.90
8002;DHT22;4046;48.774;8.732;2023-09-19T12:42:48;24.10;99.90
8002;DHT22;4046;48.774;8.732;2023-09-19T12:45:15;24.00;99.90
8002;DHT22;4046;48.774;8.732;2023-09-19T12:48:22;24.10;99.90
8002;DHT22;4046;48.774;8.732;2023-09-19T12:51:01;24.00;99.90
8002;DHT22;4046;48.774;8.732;2023-09-19T12:53:41;24.00;99.90
8002;DHT22;4046;48.774;8.732;2023-09-19T12:56:13;24.00;99.90
8002;DHT22;4046;48.774;8.732;2023-09-19T12:58:53;24.00;99.90
8002;DHT22;4046;48.774;8.732;2023-09-19T13:01:23;24.00;99.90
8002;DHT22;4046;48.774;8.732;2023-09-19T13:06:52;24.00;99.90
8002;DHT22;4046;48.774;8.732;2023-09-19T13:09:22;24.00;99.90
8002;DHT22;4046;48.774;8.732;2023-09-19T13:11:53;24.00;99.90
8002;DHT22;4046;48.774;8.732;2023-09-19T13:14:24;24.00;99.90
8002;DHT22;4046;48.774;8.732;2023-09-19T13:17:01;24.00;99.90
8002;DHT22;4046;48.774;8.732;2023-09-19T13:19:46;24.00;99.90
8002;DHT22;4046;48.774;8.732;2023-09-19T13:25:12;24.10;99.90
8002;DHT22;4046;48.774;8.732;2023-09-19T13:27:47;24.10;99.90
8002;DHT22;4046;48.774;8.732;2023-09-19T13:30:17;24.10;99.90
8002;DHT22;4046;48.774;8.732;2023-09-19T13:32:43;24.10;99.90
8002;DHT22;4046;48.774;8.732;2023-09-19T13:35:10;24.00;99.90
8002;DHT22;4046;48.774;8.732;2023-09-19T13:37:37;24.00;99.90
8002;DHT22;4046;48.774;8.732;2023-09-19T13:40:14;24.00;99.90
8002;DHT22;4046;48.774;8.732;2023-09-19T13:42:40;24.00;99.90
8002;DHT22;4046;48.774;8.732;2023-09-19T13:45:07;24.00;99.90
8002;DHT22;4046;48.774;8.732;2023-09-19T13:47:33;24.00;99.90
8002;DHT22;4046;48.774;8.732;2023-09-19T13:50:01;24.00;99.90
8002;DHT22;4046;48.774;8.732;2023-09-19T13:52:29;24.00;99.90
8002;DHT22;4046;48.774;8.732;2023-09-19T13:54:56;24.00;99.90
8002;DHT22;4046;48.774;8.732;2023-09-19T13:57:25;24.10;99.90
8002;DHT22;4046;48.774;8.732;2023-09-19T13:59:52;24.00;99.90
8002;DHT22;4046;48.774;8.732;2023-09-19T14:02:20;24.00;99.90
8002;DHT22;4046;48.774;8.732;2023-09-19T14:04:52;24.00;99.90
8002;DHT22;4046;48.774;8.732;2023-09-19T14:07:18;24.10;99.90
8002;DHT22;4046;48.774;8.732;2023-09-19T14:09:45;24.00;99.90
8002;DHT22;4046;48.774;8.732;2023-09-19T14:12:12;24.00;99.90
8002;DHT22;4046;48.774;8.732;2023-09-19T14:14:38;24.00;99.90
8002;DHT22;4046;48.774;8.732;2023-09-19T14:17:04;24.00;99.90
8002;DHT22;4046;48.774;8.732;2023-09-19T14:19:30;24.00;99.90
8002;DHT22;4046;48.774;8.732;2023-09-19T14:21:56;24.00;99.90
8002;DHT22;4046;48.774;8.732;2023-09-19T14:24:22;24.00;99.90
8002;DHT22;4046;48.774;8.732;2023-09-19T14:26:49;24.00;99.90
8002;DHT22;4046;48.774;8.732;2023-09-19T14:29:15;24.00;99.90
8002;DHT22;4046;48.774;8.732;2023-09-19T14:31:41;24.00;99.90
8002;DHT22;4046;48.774;8.732;2023-09-19T14:34:07;24.00;99.90
8002;DHT22;4046;48.774;8.732;2023-09-19T14:36:36;24.00;99.90
8002;DHT22;4046;48.774;8.732;2023-09-19T14:39:04;24.00;99.90
8002;DHT22;4046;48.774;8.732;2023-09-19T14:41:30;24.00;99.90
8002;DHT22;4046;48.774;8.732;2023-09-19T14:43:56;24.00;99.90
8002;DHT22;4046;48.774;8.732;2023-09-19T14:46:22;24.00;99.90
8002;DHT22;4046;48.774;8.732;2023-09-19T14:48:51;24.00;99.90
8002;DHT22;4046;48.774;8.732;2023-09-19T14:51:17;24.00;99.90
8002;DHT22;4046;48.774;8.732;2023-09-19T14:53:44;24.00;99.90
8002;DHT22;4046;48.774;8.732;2023-09-19T14:56:10;24.00;99.90
8002;DHT22;4046;48.774;8.732;2023-09-19T14:58:37;24.00;99.90
8002;DHT22;4046;48.774;8.732;2023-09-19T15:01:09;24.00;99.90
8002;DHT22;4046;48.774;8.732;2023-09-19T15:03:39;24.00;99.90
8002;DHT22;4046;48.774;8.732;2023-09-19T15:06:14;23.90;99.90
8002;DHT22;4046;48.774;8.732;2023-09-19T15:08:44;24.00;99.90
8002;DHT22;4046;48.774;8.732;2023-09-19T15:11:19;23.90;99.90
8002;DHT22;4046;48.774;8.732;2023-09-19T15:13:46;23.90;99.90
8002;DHT22;4046;48.774;8.732;2023-09-19T15:16:14;24.00;99.90
8002;DHT22;4046;48.774;8.732;2023-09-19T15:18:41;23.90;99.90
8002;DHT22;4046;48.774;8.732;2023-09-19T15:21:08;23.90;99.90
8002;DHT22;4046;48.774;8.732;2023-09-19T15:23:36;23.90;99.90
8002;DHT22;4046;48.774;8.732;2023-09-19T15:26:03;23.90;99.90
8002;DHT22;4046;48.774;8.732;2023-09-19T15:28:30;23.90;99.90
8002;DHT22;4046;48.774;8.732;2023-09-19T15:31:02;23.90;99.90
8002;DHT22;4046;48.774;8.732;2023-09-19T15:33:29;23.90;99.90
8002;DHT22;4046;48.774;8.732;2023-09-19T15:36:05;23.90;99.90
8002;DHT22;4046;48.774;8.732;2023-09-19T15:38:32;23.90;99.90
8002;DHT22;4046;48.774;8.732;2023-09-19T15:41:22;23.90;99.90
8002;DHT22;4046;48.774;8.732;2023-09-19T15:43:48;24.00;99.90
8002;DHT22;4046;48.774;8.732;2023-09-19T15:46:13;23.90;99.90
8002;DHT22;4046;48.774;8.732;2023-09-19T15:48:41;23.90;99.90
8002;DHT22;4046;48.774;8.732;2023-09-19T15:51:07;23.90;99.90
8002;DHT22;4046;48.774;8.732;2023-09-19T15:53:47;23.90;99.90
8002;DHT22;4046;48.774;8.732;2023-09-19T15:56:14;23.90;99.90
8002;DHT22;4046;48.774;8.732;2023-09-19T15:58:50;23.90;99.90
8002;DHT22;4046;48.774;8.732;2023-09-19T16:01:17;23.90;99.90
8002;DHT22;4046;48.774;8.732;2023-09-19T16:03:45;23.90;99.90
8002;DHT22;4046;48.774;8.732;2023-09-19T16:06:16;23.90;99.90
8002;DHT22;4046;48.774;8.732;2023-09-19T16:08:47;23.90;99.90
8002;DHT22;4046;48.774;8.732;2023-09-19T16:11:15;23.90;99.90
8002;DHT22;4046;48.774;8.732;2023-09-19T16:13:42;23.80;99.90
8002;DHT22;4046;48.774;8.732;2023-09-19T16:16:09;23.80;99.90
8002;DHT22;4046;48.774;8.732;2023-09-19T16:18:57;23.90;99.90
8002;DHT22;4046;48.774;8.732;2023-09-19T16:21:27;23.90;99.90
8002;DHT22;4046;48.774;8.732;2023-09-19T16:23:54;23.90;99.90
8002;DHT22;4046;48.774;8.732;2023-09-19T16:26:22;23.90;99.90
8002;DHT22;4046;48.774;8.732;2023-09-19T16:28:57;23.80;99.90
8002;DHT22;4046;48.774;8.732;2023-09-19T16:31:27;23.90;99.90
8002;DHT22;4046;48.774;8.732;2023-09-19T16:33:53;23.90;99.90
8002;DHT22;4046;48.774;8.732;2023-09-19T16:36:20;23.90;99.90
8002;DHT22;4046;48.774;8.732;2023-09-19T16:38:47;23.90;99.90
8002;DHT22;4046;48.774;8.732;2023-09-19T16:41:14;23.80;99.90
8002;DHT22;4046;48.774;8.732;2023-09-19T16:43:40;23.80;99.90
8002;DHT22;4046;48.774;8.732;2023-09-19T16:46:08;23.80;99.90
8002;DHT22;4046;48.774;8.732;2023-09-19T16:48:37;23.90;99.90
8002;DHT22;4046;48.774;8.732;2023-09-19T16:51:05;23.80;99.90
8002;DHT22;4046;48.774;8.732;2023-09-19T16:53:32;23.80;99.90
8002;DHT22;4046;48.774;8.732;2023-09-19T16:56:05;23.80;99.90